sensor_id;sensor_type;location;lat;lon;timestamp;temperature;humidity
25536;DHT22;13431;51.352;6.412;2023-02-01T00:01:06;5.70;99.90
25536;DHT22;13431;51.352;6.412;2023-02-01T00:03:33;5.70;99.90
25536;DHT22;13431;51.352;6.412;2023-02-01T00:06:01;5.70;99.90
25536;DHT22;13431;51.352;6.412;2023-02-01T00:08:29;5.70;99.90
25536;DHT22;13431;51.352;6.412;2023-02-01T00:11:05;5.70;99.90
25536;DHT22;13431;51.352;6.412;2023-02-01T00:13:35;5.80;99.90
25536;DHT22;13431;51.352;6.412;2023-02-01T00:16:06;5.80;99.90
25536;DHT22;13431;51.352;6.412;2023-02-01T00:18:34;5.80;99.90
25536;DHT22;13431;51.352;6.412;2023-02-01T00:21:02;5.80;99.90
25536;DHT22;13431;51.352;6.412;2023-02-01T00:23:35;5.90;99.90
25536;DHT22;13431;51.352;6.412;2023-02-01T00:26:06;5.90;99.90
25536;DHT22;13431;51.352;6.412;2023-02-01T00:28:34;5.90;99.90
25536;DHT22;13431;51.352;6.412;2023-02-01T00:31:03;5.90;99.90
25536;DHT22;13431;51.352;6.412;2023-02-01T00:33:31;5.60;99.90
25536;DHT22;13431;51.352;6.412;2023-02-01T00:36:05;5.40;99.90
25536;DHT22;13431;51.352;6.412;2023-02-01T00:38:35;5.20;99.90
25536;DHT22;13431;51.352;6.412;2023-02-01T00:41:13;5.10;99.90
25536;DHT22;13431;51.352;6.412;2023-02-01T00:43:41;5.00;99.90
25536;DHT22;13431;51.352;6.412;2023-02-01T00:46:09;4.90;99.90
25536;DHT22;13431;51.352;6.412;2023-02-01T00:48:36;4.80;99.90
25536;DHT22;13431;51.352;6.412;2023-02-01T00:51:07;4.80;99.90
25536;DHT22;13431;51.352;6.412;2023-02-01T00:53:35;4.80;99.90
25536;DHT22;13431;51.352;6.412;2023-02-01T00:56:03;4.80;99.90
25536;DHT22;13431;51.352;6.412;2023-02-01T00:58:38;4.80;99.90
25536;DHT22;13431;51.352;6.412;2023-02-01T01:01:14;4.80;99.90
25536;DHT22;13431;51.352;6.412;2023-02-01T01:03:44;4.80;99.90
25536;DHT22;13431;51.352;6.412;2023-02-01T01:06:14;4.80;99.90
25536;DHT22;13431;51.352;6.412;2023-02-01T01:08:43;4.70;99.90
25536;DHT22;13431;51.352;6.412;2023-02-01T01:11:12;4.50;99.90
25536;DHT22;13431;51.352;6.412;2023-02-01T01:13:40;4.60;99.90
25536;DHT22;13431;51.352;6.412;2023-02-01T01:16:10;4.50;99.90
25536;DHT22;13431;51.352;6.412;2023-02-01T01:18:38;4.60;99.90
25536;DHT22;13431;51.352;6.412;2023-02-01T01:21:06;4.60;99.90
25536;DHT22;13431;51.352;6.412;2023-02-01T01:23:35;4.60;99.90
25536;DHT22;13431;51.352;6.412;2023-02-01T01:26:12;4.50;99.90
25536;DHT22;13431;51.352;6.412;2023-02-01T01:28:41;4.80;99.90
25536;DHT22;13431;51.352;6.412;2023-02-01T01:31:12;4.70;99.90
25536;DHT22;13431;51.352;6.412;2023-02-01T01:33:40;4.70;99.90
25536;DHT22;13431;51.352;6.412;2023-02-01T01:36:09;4.70;99.90
25536;DHT22;13431;51.352;6.412;2023-02-01T01:38:39;4.70;99.90
25536;DHT22;13431;51.352;6.412;2023-02-01T01:41:08;4.60;99.90
25536;DHT22;13431;51.352;6.412;2023-02-01T01:44:02;4.50;99.90
25536;DHT22;13431;51.352;6.412;2023-02-01T01:46:37;4.60;99.90
25536;DHT22;13431;51.352;6.412;2023-02-01T01:49:09;4.50;99.90
25536;DHT22;13431;51.352;6.412;2023-02-01T01:51:59;4.50;99.90
25536;DHT22;13431;51.352;6.412;2023-02-01T01:54:40;4.50;99.90
25536;DHT22;13431;51.352;6.412;2023-02-01T01:57:16;4.40;99.90
25536;DHT22;13431;51.352;6.412;2023-02-01T01:59:50;4.30;99.90
25536;DHT22;13431;51.352;6.412;2023-02-01T02:02:20;4.40;99.90
25536;DHT22;13431;51.352;6.412;2023-02-01T02:04:48;4.30;99.90
25536;DHT22;13431;51.352;6.412;2023-02-01T02:07:19;4.30;99.90
25536;DHT22;13431;51.352;6.412;2023-02-01T02:09:47;4.30;99.90
25536;DHT22;13431;51.352;6.412;2023-02-01T02:12:27;4.20;99.90
25536;DHT22;13431;51.352;6.412;2023-02-01T02:14:55;4.10;99.90
25536;DHT22;13431;51.352;6.412;2023-02-01T02:17:36;4.10;99.90
25536;DHT22;13431;51.352;6.412;2023-02-01T02:25:30;3.70;99.90
25536;DHT22;13431;51.352;6.412;2023-02-01T02:30:50;3.60;99.90
25536;DHT22;13431;51.352;6.412;2023-02-01T02:39:05;3.60;99.90
25536;DHT22;13431;51.352;6.412;2023-02-01T02:47:21;3.40;99.90
25536;DHT22;13431;51.352;6.412;2023-02-01T02:53:07;3.40;99.90
25536;DHT22;13431;51.352;6.412;2023-02-01T02:55:56;3.40;99.90
25536;DHT22;13431;51.352;6.412;2023-02-01T02:58:43;3.30;99.90
25536;DHT22;13431;51.352;6.412;2023-02-01T03:01:31;3.40;99.90
25536;DHT22;13431;51.352;6.412;2023-02-01T03:04:18;3.30;99.90
25536;DHT22;13431;51.352;6.412;2023-02-01T03:06:49;3.40;99.90
25536;DHT22;13431;51.352;6.412;2023-02-01T03:09:23;3.60;99.90
25536;DHT22;13431;51.352;6.412;2023-02-01T03:11:51;3.80;99.90
25536;DHT22;13431;51.352;6.412;2023-02-01T03:14:49;4.00;99.90
25536;DHT22;13431;51.352;6.412;2023-02-01T03:17:22;4.10;99.90
25536;DHT22;13431;51.352;6.412;2023-02-01T03:19:53;4.20;99.90
25536;DHT22;13431;51.352;6.412;2023-02-01T03:22:24;4.30;99.90
25536;DHT22;13431;51.352;6.412;2023-02-01T03:25:04;4.30;99.90
25536;DHT22;13431;51.352;6.412;2023-02-01T03:27:37;4.40;99.90
25536;DHT22;13431;51.352;6.412;2023-02-01T03:30:34;4.50;99.90
25536;DHT22;13431;51.352;6.412;2023-02-01T03:33:02;4.60;99.90
25536;DHT22;13431;51.352;6.412;2023-02-01T03:43:53;4.80;99.90
25536;DHT22;13431;51.352;6.412;2023-02-01T03:46:35;4.80;99.90
25536;DHT22;13431;51.352;6.412;2023-02-01T03:49:09;4.80;99.90
25536;DHT22;13431;51.352;6.412;2023-02-01T03:51:40;4.80;99.90
25536;DHT22;13431;51.352;6.412;2023-02-01T03:54:12;4.80;99.90
25536;DHT22;13431;51.352;6.412;2023-02-01T03:56:43;4.80;99.90
25536;DHT22;13431;51.352;6.412;2023-02-01T03:59:12;4.90;99.90
25536;DHT22;13431;51.352;6.412;2023-02-01T04:01:40;4.90;99.90
25536;DHT22;13431;51.352;6.412;2023-02-01T04:04:08;5.00;99.90
25536;DHT22;13431;51.352;6.412;2023-02-01T04:06:37;4.90;99.90
25536;DHT22;13431;51.352;6.412;2023-02-01T04:09:05;4.80;99.90
25536;DHT22;13431;51.352;6.412;2023-02-01T04:11:32;4.60;99.90
25536;DHT22;13431;51.352;6.412;2023-02-01T04:14:00;4.40;99.90
25536;DHT22;13431;51.352;6.412;2023-02-01T04:16:32;4.20;99.90
25536;DHT22;13431;51.352;6.412;2023-02-01T04:19:00;4.20;99.90
25536;DHT22;13431;51.352;6.412;2023-02-01T04:21:28;4.10;99.90
25536;DHT22;13431;51.352;6.412;2023-02-01T04:23:55;4.00;99.90
25536;DHT22;13431;51.352;6.412;2023-02-01T04:26:22;4.10;99.90
25536;DHT22;13431;51.352;6.412;2023-02-01T04:28:50;3.90;99.90
25536;DHT22;13431;51.352;6.412;2023-02-01T04:31:18;3.90;99.90
25536;DHT22;13431;51.352;6.412;2023-02-01T04:33:53;4.10;99.90
25536;DHT22;13431;51.352;6.412;2023-02-01T04:36:22;3.90;99.90
25536;DHT22;13431;51.352;6.412;2023-02-01T04:38:50;3.90;99.90
25536;DHT22;13431;51.352;6.412;2023-02-01T04:41:18;3.90;99.90
25536;DHT22;13431;51.352;6.412;2023-02-01T04:43:47;4.00;99.90
25536;DHT22;13431;51.352;6.412;2023-02-01T04:46:14;4.00;99.90
25536;DHT22;13431;51.352;6.412;2023-02-01T04:48:42;3.90;99.90
25536;DHT22;13431;51.352;6.412;2023-02-01T04:51:10;3.90;99.90
25536;DHT22;13431;51.352;6.412;2023-02-01T04:53:37;3.90;99.90
25536;DHT22;13431;51.352;6.412;2023-02-01T04:56:05;3.90;99.90
25536;DHT22;13431;51.352;6.412;2023-02-01T04:58:33;3.90;99.90
25536;DHT22;13431;51.352;6.412;2023-02-01T05:01:03;3.90;99.90
25536;DHT22;13431;51.352;6.412;2023-02-01T05:03:32;3.90;99.90
25536;DHT22;13431;51.352;6.412;2023-02-01T05:06:00;3.80;99.90
25536;DHT22;13431;51.352;6.412;2023-02-01T05:08:27;3.80;99.90
25536;DHT22;13431;51.352;6.412;2023-02-01T05:10:55;3.90;99.90
25536;DHT22;13431;51.352;6.412;2023-02-01T05:13:23;3.90;99.90
25536;DHT22;13431;51.352;6.412;2023-02-01T05:16:09;3.80;99.90
25536;DHT22;13431;51.352;6.412;2023-02-01T05:18:36;3.70;99.90
25536;DHT22;13431;51.352;6.412;2023-02-01T05:21:03;3.70;99.90
25536;DHT22;13431;51.352;6.412;2023-02-01T05:23:31;3.60;99.90
25536;DHT22;13431;51.352;6.412;2023-02-01T05:26:02;3.70;99.90
25536;DHT22;13431;51.352;6.412;2023-02-01T05:28:29;3.80;99.90
25536;DHT22;13431;51.352;6.412;2023-02-01T05:30:56;3.90;99.90
25536;DHT22;13431;51.352;6.412;2023-02-01T05:33:24;3.90;99.90
25536;DHT22;13431;51.352;6.412;2023-02-01T05:35:51;3.80;99.90
25536;DHT22;13431;51.352;6.412;2023-02-01T05:38:18;3.90;99.90
25536;DHT22;13431;51.352;6.412;2023-02-01T05:40:45;3.80;99.90
25536;DHT22;13431;51.352;6.412;2023-02-01T05:43:16;3.80;99.90
25536;DHT22;13431;51.352;6.412;2023-02-01T05:45:43;3.80;99.90
25536;DHT22;13431;51.352;6.412;2023-02-01T05:48:11;3.70;99.90
25536;DHT22;13431;51.352;6.412;2023-02-01T05:50:38;3.70;99.90
25536;DHT22;13431;51.352;6.412;2023-02-01T05:53:08;3.60;99.90
25536;DHT22;13431;51.352;6.412;2023-02-01T05:55:36;3.70;99.90
25536;DHT22;13431;51.352;6.412;2023-02-01T05:58:05;3.90;99.90
25536;DHT22;13431;51.352;6.412;2023-02-01T06:00:32;4.00;99.90
25536;DHT22;13431;51.352;6.412;2023-02-01T06:03:00;4.00;99.90
25536;DHT22;13431;51.352;6.412;2023-02-01T06:05:27;4.10;99.90
25536;DHT22;13431;51.352;6.412;2023-02-01T06:07:54;4.20;99.90
25536;DHT22;13431;51.352;6.412;2023-02-01T06:10:22;4.20;99.90
25536;DHT22;13431;51.352;6.412;2023-02-01T06:12:50;4.20;99.90
25536;DHT22;13431;51.352;6.412;2023-02-01T06:15:17;4.40;99.90
25536;DHT22;13431;51.352;6.412;2023-02-01T06:17:45;4.60;99.90
25536;DHT22;13431;51.352;6.412;2023-02-01T06:20:14;4.70;99.90
25536;DHT22;13431;51.352;6.412;2023-02-01T06:22:42;4.70;99.90
25536;DHT22;13431;51.352;6.412;2023-02-01T06:25:10;4.80;99.90
25536;DHT22;13431;51.352;6.412;2023-02-01T06:27:38;4.90;99.90
25536;DHT22;13431;51.352;6.412;2023-02-01T06:30:06;4.90;99.90
25536;DHT22;13431;51.352;6.412;2023-02-01T06:32:34;5.00;99.90
25536;DHT22;13431;51.352;6.412;2023-02-01T06:35:01;5.00;99.90
25536;DHT22;13431;51.352;6.412;2023-02-01T06:37:29;5.00;99.90
25536;DHT22;13431;51.352;6.412;2023-02-01T06:39:56;5.00;99.90
25536;DHT22;13431;51.352;6.412;2023-02-01T06:42:23;5.00;99.90
25536;DHT22;13431;51.352;6.412;2023-02-01T06:44:51;5.00;99.90
25536;DHT22;13431;51.352;6.412;2023-02-01T06:47:18;5.00;99.90
25536;DHT22;13431;51.352;6.412;2023-02-01T06:49:45;5.00;99.90
25536;DHT22;13431;51.352;6.412;2023-02-01T06:52:13;4.90;99.90
25536;DHT22;13431;51.352;6.412;2023-02-01T06:54:40;4.70;99.90
25536;DHT22;13431;51.352;6.412;2023-02-01T06:57:07;4.50;99.90
25536;DHT22;13431;51.352;6.412;2023-02-01T06:59:35;4.50;99.90
25536;DHT22;13431;51.352;6.412;2023-02-01T07:02:02;4.70;99.90
25536;DHT22;13431;51.352;6.412;2023-02-01T07:04:30;4.80;99.90
25536;DHT22;13431;51.352;6.412;2023-02-01T07:06:57;5.00;99.90
25536;DHT22;13431;51.352;6.412;2023-02-01T07:09:24;5.10;99.90
25536;DHT22;13431;51.352;6.412;2023-02-01T07:11:52;5.20;99.90
25536;DHT22;13431;51.352;6.412;2023-02-01T07:14:19;5.30;99.90
25536;DHT22;13431;51.352;6.412;2023-02-01T07:16:46;5.30;99.90
25536;DHT22;13431;51.352;6.412;2023-02-01T07:19:14;5.40;99.90
25536;DHT22;13431;51.352;6.412;2023-02-01T07:21:41;5.40;99.90
25536;DHT22;13431;51.352;6.412;2023-02-01T07:24:09;5.40;99.90
25536;DHT22;13431;51.352;6.412;2023-02-01T07:26:36;5.50;99.90
25536;DHT22;13431;51.352;6.412;2023-02-01T07:29:03;5.50;99.90
25536;DHT22;13431;51.352;6.412;2023-02-01T07:31:31;5.60;99.90
25536;DHT22;13431;51.352;6.412;2023-02-01T07:33:58;5.60;99.90
25536;DHT22;13431;51.352;6.412;2023-02-01T07:36:25;5.60;99.90
25536;DHT22;13431;51.352;6.412;2023-02-01T07:38:53;5.60;99.90
25536;DHT22;13431;51.352;6.412;2023-02-01T07:41:23;5.70;99.90
25536;DHT22;13431;51.352;6.412;2023-02-01T07:43:52;5.70;99.90
25536;DHT22;13431;51.352;6.412;2023-02-01T07:46:20;5.70;99.90
25536;DHT22;13431;51.352;6.412;2023-02-01T07:48:47;5.60;99.90
25536;DHT22;13431;51.352;6.412;2023-02-01T07:51:16;5.50;99.90
25536;DHT22;13431;51.352;6.412;2023-02-01T07:53:44;5.40;99.90
25536;DHT22;13431;51.352;6.412;2023-02-01T07:56:17;5.40;99.90
25536;DHT22;13431;51.352;6.412;2023-02-01T07:58:49;5.40;99.90
25536;DHT22;13431;51.352;6.412;2023-02-01T08:01:20;5.40;99.90
25536;DHT22;13431;51.352;6.412;2023-02-01T08:03:49;5.40;99.90
25536;DHT22;13431;51.352;6.412;2023-02-01T08:06:17;5.40;99.90
25536;DHT22;13431;51.352;6.412;2023-02-01T08:08:47;5.30;99.90
25536;DHT22;13431;51.352;6.412;2023-02-01T08:11:15;5.20;99.90
25536;DHT22;13431;51.352;6.412;2023-02-01T08:13:45;5.30;99.90
25536;DHT22;13431;51.352;6.412;2023-02-01T08:16:14;5.30;99.90
25536;DHT22;13431;51.352;6.412;2023-02-01T08:18:42;5.40;99.90
25536;DHT22;13431;51.352;6.412;2023-02-01T08:21:16;5.40;99.90
25536;DHT22;13431;51.352;6.412;2023-02-01T08:23:43;5.40;99.90
25536;DHT22;13431;51.352;6.412;2023-02-01T08:26:17;5.40;99.90
25536;DHT22;13431;51.352;6.412;2023-02-01T08:28:51;5.50;99.90
25536;DHT22;13431;51.352;6.412;2023-02-01T08:31:20;5.60;99.90
25536;DHT22;13431;51.352;6.412;2023-02-01T08:33:50;5.60;99.90
25536;DHT22;13431;51.352;6.412;2023-02-01T08:36:19;5.70;99.90
25536;DHT22;13431;51.352;6.412;2023-02-01T08:38:46;5.90;99.90
25536;DHT22;13431;51.352;6.412;2023-02-01T08:41:16;5.80;99.90
25536;DHT22;13431;51.352;6.412;2023-02-01T08:43:44;5.80;99.90
25536;DHT22;13431;51.352;6.412;2023-02-01T08:46:12;5.70;99.90
25536;DHT22;13431;51.352;6.412;2023-02-01T08:48:40;5.80;99.90
25536;DHT22;13431;51.352;6.412;2023-02-01T08:51:10;6.20;99.90
25536;DHT22;13431;51.352;6.412;2023-02-01T08:53:38;6.20;99.90
25536;DHT22;13431;51.352;6.412;2023-02-01T08:56:10;6.00;99.90
25536;DHT22;13431;51.352;6.412;2023-02-01T08:58:38;6.10;99.90
25536;DHT22;13431;51.352;6.412;2023-02-01T09:01:07;6.30;99.90
25536;DHT22;13431;51.352;6.412;2023-02-01T09:03:35;6.30;99.90
25536;DHT22;13431;51.352;6.412;2023-02-01T09:06:06;6.20;99.90
25536;DHT22;13431;51.352;6.412;2023-02-01T09:08:34;6.10;99.90
25536;DHT22;13431;51.352;6.412;2023-02-01T09:11:08;6.10;99.90
25536;DHT22;13431;51.352;6.412;2023-02-01T09:13:37;6.00;99.90
25536;DHT22;13431;51.352;6.412;2023-02-01T09:16:04;6.10;99.90
25536;DHT22;13431;51.352;6.412;2023-02-01T09:18:32;6.30;99.90
25536;DHT22;13431;51.352;6.412;2023-02-01T09:21:04;6.40;99.90
25536;DHT22;13431;51.352;6.412;2023-02-01T09:23:33;6.60;99.90
25536;DHT22;13431;51.352;6.412;2023-02-01T09:26:04;6.70;99.90
25536;DHT22;13431;51.352;6.412;2023-02-01T09:28:32;6.90;99.90
25536;DHT22;13431;51.352;6.412;2023-02-01T09:31:00;6.90;99.90
25536;DHT22;13431;51.352;6.412;2023-02-01T09:33:28;6.90;99.90
25536;DHT22;13431;51.352;6.412;2023-02-01T09:36:00;7.00;99.90
25536;DHT22;13431;51.352;6.412;2023-02-01T09:38:28;6.90;99.90
25536;DHT22;13431;51.352;6.412;2023-02-01T09:40:57;6.80;99.90
25536;DHT22;13431;51.352;6.412;2023-02-01T09:43:29;6.90;99.90
25536;DHT22;13431;51.352;6.412;2023-02-01T09:46:24;7.20;99.90
25536;DHT22;13431;51.352;6.412;2023-02-01T09:48:55;7.20;99.90
25536;DHT22;13431;51.352;6.412;2023-02-01T09:51:28;7.40;99.90
25536;DHT22;13431;51.352;6.412;2023-02-01T09:54:05;7.80;99.90
25536;DHT22;13431;51.352;6.412;2023-02-01T10:02:09;9.30;99.90
25536;DHT22;13431;51.352;6.412;2023-02-01T10:04:38;9.20;99.90
25536;DHT22;13431;51.352;6.412;2023-02-01T10:07:36;8.90;99.90
25536;DHT22;13431;51.352;6.412;2023-02-01T10:21:02;8.70;99.90
25536;DHT22;13431;51.352;6.412;2023-02-01T10:24:39;8.50;99.90
25536;DHT22;13431;51.352;6.412;2023-02-01T10:26:54;8.30;99.90
25536;DHT22;13431;51.352;6.412;2023-02-01T10:29:26;7.90;99.90
25536;DHT22;13431;51.352;6.412;2023-02-01T10:31:57;7.80;99.90
25536;DHT22;13431;51.352;6.412;2023-02-01T10:34:31;7.80;99.90
25536;DHT22;13431;51.352;6.412;2023-02-01T10:39:54;7.90;99.90
25536;DHT22;13431;51.352;6.412;2023-02-01T10:42:26;7.70;99.90
25536;DHT22;13431;51.352;6.412;2023-02-01T10:44:56;7.70;99.90
25536;DHT22;13431;51.352;6.412;2023-02-01T10:47:25;7.70;99.90
25536;DHT22;13431;51.352;6.412;2023-02-01T10:50:16;7.70;99.90
25536;DHT22;13431;51.352;6.412;2023-02-01T10:52:52;7.70;99.90
25536;DHT22;13431;51.352;6.412;2023-02-01T10:58:03;7.60;99.90
25536;DHT22;13431;51.352;6.412;2023-02-01T11:00:41;7.60;99.90
25536;DHT22;13431;51.352;6.412;2023-02-01T11:03:32;7.70;99.90
25536;DHT22;13431;51.352;6.412;2023-02-01T11:06:16;7.70;99.90
25536;DHT22;13431;51.352;6.412;2023-02-01T11:08:53;7.70;99.90
25536;DHT22;13431;51.352;6.412;2023-02-01T11:11:22;7.70;99.90
25536;DHT22;13431;51.352;6.412;2023-02-01T11:13:58;7.80;99.90
25536;DHT22;13431;51.352;6.412;2023-02-01T11:16:34;7.80;99.90
25536;DHT22;13431;51.352;6.412;2023-02-01T11:19:03;7.80;99.90
25536;DHT22;13431;51.352;6.412;2023-02-01T11:21:31;7.80;99.90
25536;DHT22;13431;51.352;6.412;2023-02-01T11:24:03;7.80;99.90
25536;DHT22;13431;51.352;6.412;2023-02-01T11:26:33;7.70;99.90
25536;DHT22;13431;51.352;6.412;2023-02-01T11:29:05;7.90;99.90
25536;DHT22;13431;51.352;6.412;2023-02-01T11:31:37;7.90;99.90
25536;DHT22;13431;51.352;6.412;2023-02-01T11:34:17;7.80;99.90
25536;DHT22;13431;51.352;6.412;2023-02-01T11:36:49;7.90;99.90
25536;DHT22;13431;51.352;6.412;2023-02-01T11:39:23;7.80;99.90
25536;DHT22;13431;51.352;6.412;2023-02-01T11:44:33;7.90;99.90
25536;DHT22;13431;51.352;6.412;2023-02-01T11:47:31;8.00;99.90
25536;DHT22;13431;51.352;6.412;2023-02-01T11:50:05;8.00;99.90
25536;DHT22;13431;51.352;6.412;2023-02-01T11:55:24;8.00;99.90
25536;DHT22;13431;51.352;6.412;2023-02-01T12:00:49;8.30;99.90
25536;DHT22;13431;51.352;6.412;2023-02-01T12:06:57;8.00;99.90
25536;DHT22;13431;51.352;6.412;2023-02-01T12:09:38;7.90;99.90
25536;DHT22;13431;51.352;6.412;2023-02-01T12:12:31;7.80;99.90
25536;DHT22;13431;51.352;6.412;2023-02-01T12:15:32;7.80;99.90
25536;DHT22;13431;51.352;6.412;2023-02-01T12:37:11;7.90;99.90
25536;DHT22;13431;51.352;6.412;2023-02-01T12:42:44;7.80;99.90
25536;DHT22;13431;51.352;6.412;2023-02-01T12:45:27;7.80;99.90
25536;DHT22;13431;51.352;6.412;2023-02-01T12:50:58;7.80;99.90
25536;DHT22;13431;51.352;6.412;2023-02-01T12:53:42;7.90;99.90
25536;DHT22;13431;51.352;6.412;2023-02-01T12:56:32;7.90;99.90
25536;DHT22;13431;51.352;6.412;2023-02-01T12:59:35;7.90;99.90
25536;DHT22;13431;51.352;6.412;2023-02-01T13:02:47;7.90;99.90
25536;DHT22;13431;51.352;6.412;2023-02-01T13:05:21;7.90;99.90
25536;DHT22;13431;51.352;6.412;2023-02-01T13:08:02;7.90;99.90
25536;DHT22;13431;51.352;6.412;2023-02-01T13:10:36;7.90;99.90
25536;DHT22;13431;51.352;6.412;2023-02-01T13:15:57;8.00;99.90
25536;DHT22;13431;51.352;6.412;2023-02-01T13:18:35;8.00;99.90
25536;DHT22;13431;51.352;6.412;2023-02-01T13:21:05;8.00;99.90
25536;DHT22;13431;51.352;6.412;2023-02-01T13:23:37;8.00;99.90
25536;DHT22;13431;51.352;6.412;2023-02-01T13:26:05;7.90;99.90
25536;DHT22;13431;51.352;6.412;2023-02-01T13:28:48;8.00;99.90
25536;DHT22;13431;51.352;6.412;2023-02-01T13:42:56;8.30;99.90
25536;DHT22;13431;51.352;6.412;2023-02-01T13:45:33;8.30;99.90
25536;DHT22;13431;51.352;6.412;2023-02-01T13:48:04;8.40;99.90
25536;DHT22;13431;51.352;6.412;2023-02-01T13:50:38;8.50;99.90
25536;DHT22;13431;51.352;6.412;2023-02-01T13:55:41;8.60;99.90
25536;DHT22;13431;51.352;6.412;2023-02-01T13:58:19;8.60;99.90
25536;DHT22;13431;51.352;6.412;2023-02-01T14:00:48;8.60;99.90
25536;DHT22;13431;51.352;6.412;2023-02-01T14:03:23;8.50;99.90
25536;DHT22;13431;51.352;6.412;2023-02-01T14:09:13;8.50;99.90
25536;DHT22;13431;51.352;6.412;2023-02-01T14:19:33;8.30;99.90
25536;DHT22;13431;51.352;6.412;2023-02-01T14:24:53;8.40;99.90
25536;DHT22;13431;51.352;6.412;2023-02-01T14:27:23;8.40;99.90
25536;DHT22;13431;51.352;6.412;2023-02-01T14:29:57;8.50;99.90
25536;DHT22;13431;51.352;6.412;2023-02-01T14:32:34;8.60;99.90
25536;DHT22;13431;51.352;6.412;2023-02-01T14:35:07;8.70;99.90
25536;DHT22;13431;51.352;6.412;2023-02-01T14:37:37;8.80;99.90
25536;DHT22;13431;51.352;6.412;2023-02-01T14:47:55;8.60;99.90
25536;DHT22;13431;51.352;6.412;2023-02-01T14:50:44;8.50;99.90
25536;DHT22;13431;51.352;6.412;2023-02-01T14:53:17;8.50;99.90
25536;DHT22;13431;51.352;6.412;2023-02-01T15:01:30;8.40;99.90
25536;DHT22;13431;51.352;6.412;2023-02-01T15:04:25;8.30;99.90
25536;DHT22;13431;51.352;6.412;2023-02-01T15:06:56;8.30;99.90
25536;DHT22;13431;51.352;6.412;2023-02-01T15:09:34;8.30;99.90
25536;DHT22;13431;51.352;6.412;2023-02-01T15:14:45;8.30;99.90
25536;DHT22;13431;51.352;6.412;2023-02-01T15:17:19;8.20;99.90
25536;DHT22;13431;51.352;6.412;2023-02-01T15:22:31;8.20;99.90
25536;DHT22;13431;51.352;6.412;2023-02-01T15:24:59;8.20;99.90
25536;DHT22;13431;51.352;6.412;2023-02-01T15:27:28;8.20;99.90
25536;DHT22;13431;51.352;6.412;2023-02-01T15:30:19;8.20;99.90
25536;DHT22;13431;51.352;6.412;2023-02-01T15:32:48;8.10;99.90
25536;DHT22;13431;51.352;6.412;2023-02-01T15:41:18;8.00;99.90
25536;DHT22;13431;51.352;6.412;2023-02-01T15:46:36;8.00;99.90
25536;DHT22;13431;51.352;6.412;2023-02-01T15:49:20;8.00;99.90
25536;DHT22;13431;51.352;6.412;2023-02-01T15:51:51;7.90;99.90
25536;DHT22;13431;51.352;6.412;2023-02-01T15:54:24;7.90;99.90
25536;DHT22;13431;51.352;6.412;2023-02-01T15:56:57;7.90;99.90
25536;DHT22;13431;51.352;6.412;2023-02-01T15:59:40;7.90;99.90
25536;DHT22;13431;51.352;6.412;2023-02-01T16:02:34;7.80;99.90
25536;DHT22;13431;51.352;6.412;2023-02-01T16:05:03;7.80;99.90
25536;DHT22;13431;51.352;6.412;2023-02-01T16:07:33;7.80;99.90
25536;DHT22;13431;51.352;6.412;2023-02-01T16:10:02;7.80;99.90
25536;DHT22;13431;51.352;6.412;2023-02-01T16:12:47;7.80;99.90
25536;DHT22;13431;51.352;6.412;2023-02-01T16:15:15;7.80;99.90
25536;DHT22;13431;51.352;6.412;2023-02-01T16:17:42;7.90;99.90
25536;DHT22;13431;51.352;6.412;2023-02-01T16:20:11;7.80;99.90
25536;DHT22;13431;51.352;6.412;2023-02-01T16:22:38;7.90;99.90
25536;DHT22;13431;51.352;6.412;2023-02-01T16:25:06;7.80;99.90
25536;DHT22;13431;51.352;6.412;2023-02-01T16:27:33;7.80;99.90
25536;DHT22;13431;51.352;6.412;2023-02-01T16:30:01;7.80;99.90
25536;DHT22;13431;51.352;6.412;2023-02-01T16:32:30;7.80;99.90
25536;DHT22;13431;51.352;6.412;2023-02-01T16:34:57;7.70;99.90
25536;DHT22;13431;51.352;6.412;2023-02-01T16:37:25;7.60;99.90
25536;DHT22;13431;51.352;6.412;2023-02-01T16:39:55;7.70;99.90
25536;DHT22;13431;51.352;6.412;2023-02-01T16:42:22;7.70;99.90
25536;DHT22;13431;51.352;6.412;2023-02-01T16:44:49;7.70;99.90
25536;DHT22;13431;51.352;6.412;2023-02-01T16:47:20;7.70;99.90
25536;DHT22;13431;51.352;6.412;2023-02-01T16:49:50;7.70;99.90
25536;DHT22;13431;51.352;6.412;2023-02-01T16:52:25;7.70;99.90
25536;DHT22;13431;51.352;6.412;2023-02-01T16:54:53;7.80;99.90
25536;DHT22;13431;51.352;6.412;2023-02-01T16:57:21;7.80;99.90
25536;DHT22;13431;51.352;6.412;2023-02-01T16:59:52;7.80;99.90
25536;DHT22;13431;51.352;6.412;2023-02-01T17:02:20;7.80;99.90
25536;DHT22;13431;51.352;6.412;2023-02-01T17:04:48;7.80;99.90
25536;DHT22;13431;51.352;6.412;2023-02-01T17:07:17;7.70;99.90
25536;DHT22;13431;51.352;6.412;2023-02-01T17:09:46;7.70;99.90
25536;DHT22;13431;51.352;6.412;2023-02-01T17:12:29;7.70;99.90
25536;DHT22;13431;51.352;6.412;2023-02-01T17:14:59;7.70;99.90
25536;DHT22;13431;51.352;6.412;2023-02-01T17:17:35;7.80;99.90
25536;DHT22;13431;51.352;6.412;2023-02-01T17:20:06;7.80;99.90
25536;DHT22;13431;51.352;6.412;2023-02-01T17:22:33;7.80;99.90
25536;DHT22;13431;51.352;6.412;2023-02-01T17:25:01;7.80;99.90
25536;DHT22;13431;51.352;6.412;2023-02-01T17:27:28;7.70;99.90
25536;DHT22;13431;51.352;6.412;2023-02-01T17:29:56;7.70;99.90
25536;DHT22;13431;51.352;6.412;2023-02-01T17:32:24;7.70;99.90
25536;DHT22;13431;51.352;6.412;2023-02-01T17:34:52;7.70;99.90
25536;DHT22;13431;51.352;6.412;2023-02-01T17:37:31;7.60;99.90
25536;DHT22;13431;51.352;6.412;2023-02-01T17:39:59;7.60;99.90
25536;DHT22;13431;51.352;6.412;2023-02-01T17:42:28;7.60;99.90
25536;DHT22;13431;51.352;6.412;2023-02-01T17:44:59;7.60;99.90
25536;DHT22;13431;51.352;6.412;2023-02-01T17:47:27;7.50;99.90
25536;DHT22;13431;51.352;6.412;2023-02-01T17:49:54;7.50;99.90
25536;DHT22;13431;51.352;6.412;2023-02-01T17:52:24;7.40;99.90
25536;DHT22;13431;51.352;6.412;2023-02-01T17:54:52;7.50;99.90
25536;DHT22;13431;51.352;6.412;2023-02-01T17:57:20;7.50;99.90
25536;DHT22;13431;51.352;6.412;2023-02-01T17:59:48;7.50;99.90
25536;DHT22;13431;51.352;6.412;2023-02-01T18:02:21;7.50;99.90
25536;DHT22;13431;51.352;6.412;2023-02-01T18:04:49;7.50;99.90
25536;DHT22;13431;51.352;6.412;2023-02-01T18:07:17;7.40;99.90
25536;DHT22;13431;51.352;6.412;2023-02-01T18:09:44;7.40;99.90
25536;DHT22;13431;51.352;6.412;2023-02-01T18:12:20;7.40;99.90
25536;DHT22;13431;51.352;6.412;2023-02-01T18:14:48;7.40;99.90
25536;DHT22;13431;51.352;6.412;2023-02-01T18:17:15;7.50;99.90
25536;DHT22;13431;51.352;6.412;2023-02-01T18:19:42;7.50;99.90
25536;DHT22;13431;51.352;6.412;2023-02-01T18:22:15;7.40;99.90
25536;DHT22;13431;51.352;6.412;2023-02-01T18:24:43;7.40;99.90
25536;DHT22;13431;51.352;6.412;2023-02-01T18:27:11;7.50;99.90
25536;DHT22;13431;51.352;6.412;2023-02-01T18:29:38;7.50;99.90
25536;DHT22;13431;51.352;6.412;2023-02-01T18:32:07;7.50;99.90
25536;DHT22;13431;51.352;6.412;2023-02-01T18:34:35;7.50;99.90
25536;DHT22;13431;51.352;6.412;2023-02-01T18:37:02;7.60;99.90
25536;DHT22;13431;51.352;6.412;2023-02-01T18:39:30;7.70;99.90
25536;DHT22;13431;51.352;6.412;2023-02-01T18:41:59;7.60;99.90